• Join FlightAware (Why Join?)
  • Login
  • US Flag 
10:59PM EDT


 

Airport Tracker/Info


-or-


 

Live Flight TrackerFlight Track Log ✈ TCF3559 ✈ 21-Apr-2013 ✈ KDEN - KCLE

Flight Track Log - Related Links

Times and Time Zones

All times are in EDT time to prevent confusion due to time zone crossing. See the TCF3559 flight status page for this flight to view local times or setup timezone preferences in your user account.

Time Position Orientation Groundspeed Altitude Reporting Facility
EDT Latitude Longitude Course Direction KTS MPH feet Rate Location/Type
10:01PM 39.8833 -104.6167 85° East 150 173 6,400  Level Denver TRACON
10:02PM 39.8833 -104.5500 90° East 208 239 7,600 1,260 Climbing Denver TRACON
10:03PM 39.8667 -104.1975 90° East  Level FlightAware Approximate
10:03PM 39.8747 -104.4697 98° East 234 269 8,900  Level Denver Center
10:04PM 39.8667 -104.0406 90° East  Level FlightAware Approximate
10:04PM 39.8736 -104.3569 91° East 287 330 11,600  Level Denver Center
10:05PM 39.8667 -103.8838 90° East  Level FlightAware Approximate
10:05PM 39.8733 -104.2431 90° East 312 359 14,200  Level Denver Center
10:06PM 39.8835 -103.7304 85° East  Level FlightAware Approximate
10:06PM 39.8728 -104.1197 90° East 340 391 16,200  Level Denver Center
10:07PM 39.8711 -103.9775 91° East 369 425 18,300 1,860 Climbing Denver Center
10:08PM 39.8747 -103.8389 88° East 384 442 20,100 1,740 Climbing Denver Center
10:09PM 39.8867 -103.7006 84° East 392 451 22,000 1,800 Climbing Denver Center
10:10PM 39.9042 -103.5547 81° East 401 461 23,900 1,800 Climbing Denver Center
10:11PM 39.9256 -103.3736 81° East 428 493 25,700 1,560 Climbing Denver Center
10:12PM 39.9425 -103.2131 82° East 444 511 27,200 1,380 Climbing Denver Center
10:13PM 39.9611 -103.0531 81° East 445 512 28,600 1,260 Climbing Denver Center
10:14PM 39.9786 -102.8886 82° East 453 521 29,900 1,020 Climbing Denver Center
10:15PM 39.9964 -102.7219 82° East 458 527 30,800 840 Climbing Denver Center
10:16PM 40.0244 -102.5425 78° East 469 540 31,700 720 Climbing Denver Center
10:17PM 40.0539 -102.3806 77° East 479 551 32,300 660 Climbing Denver Center
10:18PM 40.0881 -102.1878 77° East 489 563 33,100 1,020 Climbing Denver Center
10:19PM 40.1175 -102.0228 77° East 486 559 34,500 900 Climbing Denver Center
10:20PM 40.1508 -101.8356 77° East 476 548 35,000 240 Climbing Denver Center
10:21PM 40.1792 -101.6714 77° East 485 558 35,000  Level Denver Center
10:22PM 40.2083 -101.5014 77° East 498 573 35,000  Level Denver Center
10:23PM 40.2425 -101.3069 77° East 494 568 35,000  Level Denver Center
10:24PM 40.2711 -101.1392 77° East 495 570 35,000  Level Denver Center
10:25PM 40.3042 -100.9433 77° East 496 571 35,000  Level Denver Center
10:26PM 40.3308 -100.7769 78° East 493 567 35,000  Level Denver Center
10:27PM 40.3622 -100.5842 78° East 489 563 35,000  Level Denver Center
10:28PM 40.3897 -100.4200 78° East 486 559 35,000  Level Denver Center
10:29PM 40.4206 -100.2275 78° East 485 558 35,000  Level Denver Center
10:31PM 40.4469 -100.0636 78° East 483 556 35,000  Level Denver Center
10:32PM 40.4769 -99.8708 78° East 484 557 35,000  Level Denver Center
10:33PM 40.5036 -99.7025 78° East 480 552 35,000  Level Denver Center
10:34PM 40.5294 -99.5319 79° East 478 550 35,000  Level Denver Center
10:35PM 40.5567 -99.3625 78° East 477 549 35,000  Level Denver Center
10:36PM 40.5825 -99.1908 79° East 481 554 35,000  Level Denver Center
10:37PM 40.6136 -98.9814 79° East 487 560 35,000  Level Denver Center
10:38PM 40.6392 -98.8081 79° East 487 560 35,000  Level Denver Center
10:39PM 40.6614 -98.6517 79° East 449 517 35,000  Level Denver Center
10:40PM 40.6853 -98.4906 79° East 449 517 35,000  Level Denver Center
10:40PM 40.6897 -98.4592 79° East 449 517 35,000  Level Minneapolis Center
10:41PM 40.7186 -98.2606 79° East 460 529 35,000  Level Minneapolis Center
10:42PM 40.7422 -98.0964 79° East 459 528 35,000  Level Minneapolis Center
10:43PM 40.7636 -97.9306 80° East 460 529 35,000  Level Minneapolis Center
10:44PM 40.7872 -97.7647 79° East 462 532 35,000  Level Minneapolis Center
10:45PM 40.8150 -97.5633 80° East 464 534 35,000  Level Minneapolis Center
10:46PM 40.8367 -97.3947 80° East 466 536 35,000  Level Minneapolis Center
10:47PM 40.8628 -97.2003 80° East 470 541 35,000  Level Minneapolis Center
10:48PM 40.8872 -97.0233 80° East 484 557 35,000  Level Minneapolis Center
10:50PM 40.9092 -96.8481 81° East 486 559 35,000  Level Minneapolis Center
10:51PM 40.9314 -96.6736 80° East 484 557 35,000  Level Minneapolis Center
10:52PM 40.9569 -96.5006 79° East 483 556 35,000  Level Minneapolis Center
10:53PM 40.9806 -96.3297 80° East 478 550 35,000  Level Minneapolis Center
10:54PM 41.0022 -96.1631 80° East 467 537 35,000  Level Minneapolis Center
10:55PM 41.0233 -96.0056 80° East 446 513 35,000  Level Minneapolis Center
10:56PM 41.0497 -95.8097 80° East 454 522 35,000  Level Minneapolis Center
10:57PM 41.0700 -95.6481 81° East 452 520 35,000  Level Minneapolis Center
10:58PM 41.0911 -95.4839 80° East 453 521 35,000  Level Minneapolis Center
10:59PM 41.1128 -95.3169 80° East 458 527 35,000  Level Minneapolis Center
11:00PM 41.1336 -95.1503 81° East 460 529 35,000  Level Minneapolis Center
11:01PM 41.1578 -94.9547 81° East 452 520 35,000  Level Minneapolis Center
11:02PM 41.1772 -94.7958 81° East 442 509 35,000  Level Minneapolis Center
11:03PM 41.1947 -94.6317 82° East 441 507 35,000  Level Minneapolis Center
11:04PM 41.2142 -94.4767 80° East 438 504 35,000  Level Minneapolis Center
11:05PM 41.2353 -94.2858 82° East 438 504 35,000  Level Minneapolis Center
11:06PM 41.2553 -94.1231 81° East 440 506 35,000  Level Minneapolis Center
11:07PM 41.2733 -93.9625 81° East 441 507 35,000  Level Minneapolis Center
11:08PM 41.2919 -93.8011 81° East 442 509 35,000  Level Minneapolis Center
11:09PM 41.3117 -93.6400 81° East 443 510 35,000  Level Minneapolis Center
11:10PM 41.3308 -93.4800 81° East 442 509 35,000  Level Minneapolis Center
11:11PM 41.3494 -93.3217 81° East 439 505 35,000  Level Minneapolis Center
11:12PM 41.3672 -93.1592 82° East 441 507 35,000  Level Minneapolis Center
11:13PM 41.3861 -92.9978 81° East 443 510 35,000  Level Minneapolis Center
11:14PM 41.4042 -92.8392 81° East 439 505 35,000  Level Minneapolis Center
11:15PM 41.4214 -92.6792 82° East 438 504 35,000  Level Minneapolis Center
11:15PM 41.4281 -92.6161 82° East 434 499 35,000  Level Chicago Center
11:16PM 41.4461 -92.4531 82° East 441 507 35,000  Level Chicago Center
11:17PM 41.4639 -92.2836 82° East 447 514 35,000  Level Chicago Center
11:18PM 41.4811 -92.1231 82° East 445 512 35,000  Level Chicago Center
11:20PM 41.4986 -91.9561 82° East 459 528 35,000  Level Chicago Center
11:21PM 41.5158 -91.7842 82° East 470 541 35,000  Level Chicago Center
11:22PM 41.5328 -91.6156 82° East 465 535 35,000  Level Chicago Center
11:23PM 41.5533 -91.4061 82° East 477 549 35,000  Level Chicago Center
11:24PM 41.5700 -91.2350 83° East 474 545 35,000  Level Chicago Center
11:25PM 41.5867 -91.0650 82° East 470 541 35,000  Level Chicago Center
11:26PM 41.6017 -90.8944 83° East 469 540 35,000  Level Chicago Center
11:27PM 41.6186 -90.7214 82° East 475 547 35,000  Level Chicago Center
11:28PM 41.6331 -90.5558 83° East 479 551 35,000  Level Chicago Center
11:29PM 41.6478 -90.3819 83° East 473 544 35,000  Level Chicago Center
11:30PM 41.6633 -90.2094 83° East 468 539 35,000  Level Chicago Center
11:31PM 41.6778 -90.0372 84° East 466 536 35,000  Level Chicago Center
11:32PM 41.6950 -89.8275 84° East 470 541 35,000  Level Chicago Center
11:33PM 41.7108 -89.6506 83° East 476 548 35,000  Level Chicago Center
11:34PM 41.7250 -89.4722 84° East 470 541 35,000  Level Chicago Center
11:35PM 41.7397 -89.2994 83° East 469 540 35,000  Level Chicago Center
11:36PM 41.7519 -89.1267 85° East 468 539 35,000  Level Chicago Center
11:37PM 41.7642 -88.9544 85° East 466 536 35,000  Level Chicago Center
11:38PM 41.7778 -88.7811 84° East 469 540 35,000  Level Chicago Center
11:39PM 41.7900 -88.6069 85° East 470 541 35,000  Level Chicago Center
11:40PM 41.8028 -88.4319 84° East 471 542 35,000  Level Chicago Center
11:41PM 41.8142 -88.2578 85° East 470 541 35,000  Level Chicago Center
11:42PM 41.8269 -88.0833 84° East 470 541 35,000  Level Chicago Center
11:43PM 41.8397 -87.9103 84° East 466 536 35,000  Level Chicago Center
11:44PM 41.8506 -87.7383 85° East 463 533 35,000  Level Chicago Center
11:45PM 41.8614 -87.5656 85° East 464 534 35,000  Level Chicago Center
11:46PM 41.8722 -87.3917 85° East 467 537 35,000  Level Chicago Center
11:47PM 41.8808 -87.2161 86° East 469 540 35,000  Level Chicago Center
11:48PM 41.8914 -87.0447 85° East 465 535 35,000  Level Chicago Center
11:49PM 41.9006 -86.8711 86° East 466 536 35,000  Level Chicago Center
11:50PM 41.9117 -86.6919 85° East 468 539 35,000  Level Chicago Center
11:51PM 41.9222 -86.5169 85° East 468 539 35,000  Level Chicago Center
11:52PM 41.9308 -86.3417 86° East 469 540 35,000  Level Chicago Center
11:53PM 41.9408 -86.1672 86° East 469 540 35,000  Level Chicago Center
11:54PM 41.9500 -85.9900 86° East 473 544 35,000  Level Chicago Center
11:55PM 41.9586 -85.8161 86° East 466 536 35,000  Level Chicago Center
11:56PM 41.9669 -85.6406 86° East 469 540 35,000  Level Chicago Center
11:57PM 41.9750 -85.4639 86° East 469 540 35,000  Level Chicago Center
11:58PM 41.9853 -85.3133 85° East 469 540 35,000  Level Cleveland Center
12:00AM 41.9981 -84.9228 87° East 475 547 35,000  Level Chicago Center
12:01AM 41.9964 -84.7478 91° East 470 541 35,000  Level Chicago Center
12:02AM 41.9653 -84.5867 105° East 467 537 35,000  Level Chicago Center
12:03AM 41.9322 -84.4192 105° East 468 539 35,000  Level Chicago Center
12:04AM 41.8986 -84.2486 105° East 472 543 35,000 -300 Level Chicago Center
12:05AM 41.8697 -84.0814 103° East 464 534 34,400 -1,320 Descending Chicago Center
12:06AM 41.8381 -83.9128 104° East 468 539 32,400 -2,460 Descending Chicago Center
12:07AM 41.8050 -83.7458 105° East 467 537 29,500 -2,220 Descending Chicago Center
12:09AM 41.7508 -83.5144 107° East  Level FlightAware Approximate
12:14AM 41.5686 -82.6175 102° East 376 433 14,000  Level Cleveland Center
12:16AM 41.5170 -82.4180 108° East  Level FlightAware Approximate
12:16AM 41.5339 -82.4583 106° East 372 428 12,000  Level Cleveland Center
12:17AM 41.4824 -82.2619 105° East  Level FlightAware Approximate
12:17AM 41.4981 -82.3464 113° Southeast 303 349 10,900  Level Cleveland Center
12:18AM 41.4589 -82.1021 108° East  Level FlightAware Approximate
12:18AM 41.4578 -82.2539 120° Southeast 278 320 8,500  Level Cleveland Center
12:19AM 41.4216 -81.9464 102° East  Level FlightAware Approximate
12:19AM 41.4194 -82.1669 120° Southeast 267 307 6,300  Level Cleveland Center
12:20AM 41.3831 -82.0886 122° Southeast 253 291 4,500 -1,440 Descending Cleveland Center
12:21AM 41.3525 -82.0214 121° Southeast 183 211 3,400 -1,020 Descending Cleveland Center
12:22AM 41.3431 -81.9633 102° East 147 169 2,500 -840 Descending Cleveland Center
12:23AM 41.3661 -81.9306 47° Northeast 123 142 1,800 -660 Descending Cleveland Center
12:24AM 41.3875 -81.8950 51° Northeast 121 139 1,200 -600 Descending Cleveland Center
12:26AM 41.4000 -81.8500 108° East  Level FlightAware Approximate